createdAt,value
2023-01-31T00:00:23.794Z,1005.49
2023-01-31T00:05:26.098Z,1005.44
2023-01-31T00:10:30.261Z,1005.48
2023-01-31T00:15:35.021Z,1005.26
2023-01-31T00:20:38.724Z,1005.17
2023-01-31T00:25:42.765Z,1005.10
2023-01-31T00:30:46.918Z,1005.07
2023-01-31T00:40:55.229Z,1005.13
2023-01-31T00:45:59.387Z,1004.91
2023-01-31T00:51:03.550Z,1004.99
2023-01-31T00:56:07.745Z,1004.82
2023-01-31T01:01:11.933Z,1004.84
2023-01-31T01:06:16.079Z,1004.96
2023-01-31T01:11:20.256Z,1004.98
2023-01-31T01:16:24.460Z,1005.10
2023-01-31T01:21:28.558Z,1005.18
2023-01-31T01:26:32.939Z,1005.24
2023-01-31T01:31:36.994Z,1005.37
2023-01-31T01:36:41.062Z,1005.51
2023-01-31T01:41:45.201Z,1005.45
2023-01-31T01:46:49.413Z,1005.72
2023-01-31T01:51:53.549Z,1005.92
2023-01-31T01:56:55.788Z,1005.86
2023-01-31T02:01:59.979Z,1005.90
2023-01-31T02:07:02.246Z,1005.92
2023-01-31T02:12:06.414Z,1005.97
2023-01-31T02:17:08.675Z,1006.09
2023-01-31T02:22:12.848Z,1006.17
2023-01-31T02:27:16.982Z,1006.30
2023-01-31T02:32:21.738Z,1006.31
2023-01-31T02:37:25.608Z,1006.40
2023-01-31T02:42:29.523Z,1006.43
2023-01-31T02:47:33.649Z,1006.47
2023-01-31T02:52:37.798Z,1006.49
2023-01-31T02:57:42.012Z,1006.42
2023-01-31T03:02:46.218Z,1006.40
2023-01-31T03:07:50.337Z,1006.35
2023-01-31T03:12:54.478Z,1006.23
2023-01-31T03:17:58.752Z,1006.06
2023-01-31T03:23:02.840Z,1005.94
2023-01-31T03:28:06.984Z,1005.78
2023-01-31T03:33:11.136Z,1005.70
2023-01-31T03:38:15.391Z,1005.70
2023-01-31T03:43:19.464Z,1005.61
2023-01-31T03:53:27.792Z,1005.41
2023-01-31T03:58:32.404Z,1005.56
2023-01-31T04:03:36.104Z,1005.49
2023-01-31T04:08:38.381Z,1005.44
2023-01-31T04:13:42.580Z,1005.37
2023-01-31T04:18:46.719Z,1005.40
2023-01-31T04:23:50.879Z,1005.38
2023-01-31T04:28:55.078Z,1005.44
2023-01-31T04:33:59.251Z,1005.48
2023-01-31T04:39:03.416Z,1005.35
2023-01-31T04:44:08.007Z,1005.40
2023-01-31T04:49:11.699Z,1005.35
2023-01-31T04:54:15.890Z,1005.14
2023-01-31T04:59:20.051Z,1005.01
2023-01-31T05:04:24.183Z,1005.00
2023-01-31T05:09:28.384Z,1005.01
2023-01-31T05:14:32.681Z,1004.77
2023-01-31T05:19:36.697Z,1004.67
2023-01-31T05:24:40.885Z,1004.33
2023-01-31T05:29:45.073Z,1004.18
2023-01-31T05:34:49.208Z,1004.14
2023-01-31T05:39:53.374Z,1004.01
2023-01-31T05:44:57.513Z,1004.04
2023-01-31T05:50:01.665Z,1003.93
2023-01-31T05:55:03.948Z,1004.05
2023-01-31T06:00:08.149Z,1004.00
2023-01-31T06:05:10.440Z,1003.94
2023-01-31T06:10:14.579Z,1003.77
2023-01-31T06:15:16.820Z,1003.61
2023-01-31T06:20:22.101Z,1003.51
2023-01-31T06:25:25.164Z,1003.66
2023-01-31T06:30:29.396Z,1003.81
2023-01-31T06:35:33.484Z,1004.10
2023-01-31T06:40:37.640Z,1004.13
2023-01-31T06:45:41.883Z,1004.42
2023-01-31T06:50:46.004Z,1004.31
2023-01-31T06:55:50.126Z,1004.69
2023-01-31T07:00:54.832Z,1004.71
2023-01-31T07:05:58.478Z,1004.82
2023-01-31T07:11:02.619Z,1004.86
2023-01-31T07:16:06.884Z,1004.96
2023-01-31T07:21:10.954Z,1004.94
2023-01-31T07:26:15.147Z,1005.03
2023-01-31T07:31:19.352Z,1004.91
2023-01-31T07:36:23.605Z,1004.91
2023-01-31T07:41:27.654Z,1004.77
2023-01-31T07:46:32.266Z,1004.86
2023-01-31T07:51:35.970Z,1004.95
2023-01-31T07:56:40.101Z,1004.88
2023-01-31T08:01:42.433Z,1004.90
2023-01-31T08:06:46.576Z,1004.94
2023-01-31T08:11:50.718Z,1004.87
2023-01-31T08:16:54.953Z,1004.77
2023-01-31T08:21:59.033Z,1004.98
2023-01-31T08:27:03.189Z,1005.06
2023-01-31T08:32:07.405Z,1005.13
2023-01-31T08:37:11.624Z,1005.15
2023-01-31T08:42:15.693Z,1005.01
2023-01-31T08:47:19.873Z,1004.95
2023-01-31T08:52:24.053Z,1004.78
2023-01-31T08:57:28.213Z,1004.14
2023-01-31T09:02:32.500Z,1003.70
2023-01-31T09:07:36.502Z,1003.30
2023-01-31T09:12:40.680Z,1002.92
2023-01-31T09:17:44.840Z,1002.67
2023-01-31T09:22:48.982Z,1002.33
2023-01-31T09:27:53.160Z,1001.89
2023-01-31T09:32:57.350Z,1001.98
2023-01-31T09:38:01.560Z,1001.92
2023-01-31T09:43:05.681Z,1001.86
2023-01-31T09:48:07.953Z,1001.61
2023-01-31T09:53:12.099Z,1001.56
2023-01-31T09:58:14.355Z,1001.68
2023-01-31T10:03:18.532Z,1001.64
2023-01-31T10:08:20.820Z,1001.60
2023-01-31T10:13:24.977Z,1001.65
2023-01-31T10:18:29.292Z,1001.72
2023-01-31T10:23:33.308Z,1001.45
2023-01-31T10:28:37.446Z,1001.16
2023-01-31T10:33:41.617Z,1000.95
2023-01-31T10:38:45.819Z,1000.79
2023-01-31T10:43:48.054Z,1000.86
2023-01-31T10:48:52.215Z,1000.63
2023-01-31T10:53:56.770Z,1000.62
2023-01-31T10:59:00.569Z,1000.36
2023-01-31T11:04:04.703Z,1000.09
2023-01-31T11:09:08.908Z,999.89
2023-01-31T11:14:13.031Z,999.95
2023-01-31T11:19:17.196Z,999.89
2023-01-31T11:24:21.377Z,999.73
2023-01-31T11:29:25.530Z,999.76
2023-01-31T11:34:29.687Z,999.53
2023-01-31T11:39:33.854Z,999.56
2023-01-31T11:44:38.012Z,999.54
2023-01-31T11:49:42.168Z,999.46
2023-01-31T11:54:44.440Z,999.55
2023-01-31T11:59:48.605Z,999.57
2023-01-31T12:04:52.793Z,999.74
2023-01-31T12:09:55.069Z,999.70
2023-01-31T12:14:59.226Z,999.71
2023-01-31T12:20:09.067Z,999.71
2023-01-31T12:25:07.544Z,999.71
2023-01-31T12:30:11.852Z,999.71
2023-01-31T12:35:15.866Z,999.61
2023-01-31T12:45:24.201Z,999.46
2023-01-31T12:50:28.356Z,999.37
2023-01-31T12:55:32.509Z,999.41
2023-01-31T13:00:36.694Z,999.31
2023-01-31T13:05:40.851Z,999.34
2023-01-31T13:10:44.982Z,999.28
2023-01-31T13:15:49.225Z,999.36
2023-01-31T13:20:53.344Z,999.26
2023-01-31T13:25:57.475Z,999.24
2023-01-31T13:31:01.755Z,999.03
2023-01-31T13:36:05.835Z,998.86
2023-01-31T13:41:09.980Z,998.71
2023-01-31T13:46:14.174Z,998.49
2023-01-31T13:51:18.315Z,998.06
2023-01-31T13:56:22.481Z,997.92
2023-01-31T14:01:24.800Z,997.73
2023-01-31T14:06:28.906Z,997.61
2023-01-31T14:11:33.046Z,997.45
2023-01-31T14:16:37.275Z,997.17
2023-01-31T14:21:41.510Z,997.04
2023-01-31T14:26:45.625Z,996.98
2023-01-31T14:31:49.817Z,996.91
2023-01-31T14:36:53.881Z,996.80
2023-01-31T14:41:58.074Z,996.77
2023-01-31T14:47:05.895Z,996.75
2023-01-31T14:52:06.373Z,996.67
2023-01-31T14:57:10.564Z,996.65
2023-01-31T15:02:14.832Z,996.68
2023-01-31T15:07:18.866Z,996.70
2023-01-31T15:12:23.052Z,996.61
2023-01-31T15:17:35.928Z,996.69
2023-01-31T15:22:31.327Z,996.83
2023-01-31T15:27:35.520Z,996.72
2023-01-31T15:32:39.659Z,996.68
2023-01-31T15:37:43.849Z,996.68
2023-01-31T15:42:48.038Z,996.67
2023-01-31T15:47:50.300Z,996.64
2023-01-31T15:52:54.451Z,996.74
2023-01-31T15:57:56.778Z,996.69
2023-01-31T16:03:01.010Z,996.79
2023-01-31T16:08:03.247Z,996.76
2023-01-31T16:13:07.347Z,996.78
2023-01-31T16:18:11.580Z,996.91
2023-01-31T16:23:15.719Z,996.95
2023-01-31T16:28:19.815Z,996.76
2023-01-31T16:33:23.998Z,996.84
2023-01-31T16:38:28.109Z,996.83
2023-01-31T16:43:32.328Z,996.78
2023-01-31T16:48:36.448Z,996.79
2023-01-31T16:53:40.632Z,996.78
2023-01-31T16:58:44.761Z,996.81
2023-01-31T17:03:48.929Z,996.86
2023-01-31T17:08:53.115Z,996.95
2023-01-31T17:13:57.257Z,997.06
2023-01-31T17:19:01.599Z,997.13
2023-01-31T17:24:05.660Z,997.04
2023-01-31T17:29:09.749Z,997.12
2023-01-31T17:34:13.985Z,997.09
2023-01-31T17:39:18.114Z,997.09
2023-01-31T17:44:22.454Z,997.00
2023-01-31T17:49:26.429Z,997.06
2023-01-31T17:54:28.694Z,997.17
2023-01-31T17:59:32.827Z,997.17
2023-01-31T18:04:37.017Z,997.17
2023-01-31T18:09:41.150Z,997.37
2023-01-31T18:14:45.352Z,997.40
2023-01-31T18:19:49.494Z,997.58
2023-01-31T18:24:53.645Z,997.58
2023-01-31T18:29:57.824Z,997.78
2023-01-31T18:35:01.982Z,997.82
2023-01-31T18:40:06.174Z,997.90
2023-01-31T18:45:10.303Z,997.95
2023-01-31T18:50:14.484Z,998.06
2023-01-31T18:55:19.267Z,998.31
2023-01-31T19:00:22.803Z,998.50
2023-01-31T19:05:26.954Z,998.72
2023-01-31T19:10:31.159Z,998.93
2023-01-31T19:15:35.286Z,999.01
2023-01-31T19:20:39.450Z,999.12
2023-01-31T19:25:43.633Z,999.46
2023-01-31T19:30:47.810Z,999.59
2023-01-31T19:35:51.947Z,999.62
2023-01-31T19:40:54.209Z,999.64
2023-01-31T19:45:58.464Z,999.75
2023-01-31T19:51:02.573Z,999.77
2023-01-31T19:56:06.687Z,999.97
2023-01-31T20:01:10.961Z,1000.04
2023-01-31T20:06:15.007Z,1000.08
2023-01-31T20:11:19.196Z,1000.21
2023-01-31T20:16:23.461Z,1000.26
2023-01-31T20:21:27.531Z,1000.14
2023-01-31T20:26:31.731Z,999.96
2023-01-31T20:31:35.886Z,999.81
2023-01-31T20:36:40.003Z,999.65
2023-01-31T20:41:44.218Z,999.49
2023-01-31T20:46:48.301Z,999.32
2023-01-31T20:51:52.484Z,999.13
2023-01-31T20:56:56.674Z,999.11
2023-01-31T21:02:00.809Z,999.06
2023-01-31T21:07:04.982Z,998.81
2023-01-31T21:12:09.174Z,998.77
2023-01-31T21:17:13.304Z,998.58
2023-01-31T21:22:17.526Z,998.56
2023-01-31T21:27:19.795Z,998.46
2023-01-31T21:32:23.950Z,998.45
2023-01-31T21:37:26.202Z,998.39
2023-01-31T21:42:30.368Z,998.38
2023-01-31T21:47:34.516Z,998.46
2023-01-31T21:52:38.670Z,998.48
2023-01-31T21:57:42.821Z,998.46
2023-01-31T22:02:47.077Z,998.37
2023-01-31T22:07:51.157Z,998.42
2023-01-31T22:12:55.341Z,998.32
2023-01-31T22:17:59.541Z,998.39
2023-01-31T22:23:03.689Z,998.43
2023-01-31T22:28:07.841Z,998.34
2023-01-31T22:33:11.984Z,998.24
2023-01-31T22:38:16.181Z,998.16
2023-01-31T22:43:20.298Z,997.96
2023-01-31T22:48:24.457Z,997.75
2023-01-31T22:53:28.638Z,997.83
2023-01-31T22:58:32.795Z,997.86
2023-01-31T23:03:39.026Z,997.75
2023-01-31T23:08:41.188Z,997.73
2023-01-31T23:13:45.303Z,997.49
2023-01-31T23:18:49.485Z,997.39
2023-01-31T23:23:51.717Z,997.31
2023-01-31T23:28:55.911Z,997.29
2023-01-31T23:33:58.145Z,997.28
2023-01-31T23:39:02.353Z,997.18
2023-01-31T23:44:04.598Z,997.15
2023-01-31T23:49:08.777Z,997.04
2023-01-31T23:54:12.946Z,997.07
2023-01-31T23:59:17.116Z,997.13
